Time;durP1;ratioP1;P1;durP2;ratioP2;P2;SDS_P1;SDS_P2;PMS_P1;PMS_P2;Temp;Humidity;BMP_temperature;BMP_pressure;BME280_temperature;BME280_humidity;BME280_pressure;Samples;Min_cycle;Max_cycle;Signal;HPM_P1;HPM_P2
2023/03/20 00:01:12;;;;;;;45.70;21.43;;;10.70;74.50;;;;;;6066048;23;20162;-77
2023/03/20 00:03:42;;;;;;;44.97;20.77;;;10.70;74.70;;;;;;6064746;23;20170;-78
2023/03/20 00:06:17;;;;;;;40.20;20.77;;;10.60;74.70;;;;;;6065225;23;20179;-77
2023/03/20 00:08:46;;;;;;;42.73;21.33;;;10.60;74.70;;;;;;6065609;23;20570;-77
2023/03/20 00:11:29;;;;;;;40.77;21.33;;;10.60;74.70;;;;;;6066721;23;20178;-77
2023/03/20 00:14:00;;;;;;;41.43;20.43;;;10.60;74.80;;;;;;6066219;23;20297;-77
2023/03/20 00:16:32;;;;;;;40.00;21.73;;;10.50;74.80;;;;;;6065902;23;20166;-78
2023/03/20 00:19:02;;;;;;;37.90;20.07;;;10.50;74.80;;;;;;6064116;23;20167;-77
2023/03/20 00:21:31;;;;;;;39.43;20.87;;;10.50;75.00;;;;;;6065062;23;20158;-77
2023/03/20 00:24:00;;;;;;;44.53;20.93;;;10.50;75.00;;;;;;6064486;23;20174;-76
2023/03/20 00:26:33;;;;;;;43.83;20.67;;;10.50;75.10;;;;;;6064670;23;20174;-77
2023/03/20 00:29:03;;;;;;;36.13;19.20;;;10.40;75.10;;;;;;6063398;23;20186;-78
2023/03/20 00:31:34;;;;;;;38.20;20.50;;;10.40;75.10;;;;;;6065175;23;20175;-76
2023/03/20 00:34:05;;;;;;;34.37;18.10;;;10.40;75.10;;;;;;6064869;23;20162;-77
2023/03/20 00:36:34;;;;;;;40.80;20.47;;;10.40;75.20;;;;;;6060803;23;20688;-77
2023/03/20 00:39:03;;;;;;;40.47;18.83;;;10.30;75.20;;;;;;6065579;23;20552;-77
2023/03/20 00:41:37;;;;;;;41.07;19.57;;;10.40;75.50;;;;;;6066363;23;20178;-77
2023/03/20 00:44:20;;;;;;;38.47;18.90;;;10.30;76.10;;;;;;6066247;23;20218;-77
2023/03/20 00:46:51;;;;;;;31.93;18.73;;;10.30;75.90;;;;;;6064489;23;20167;-77
2023/03/20 00:49:25;;;;;;;47.63;20.73;;;10.30;75.80;;;;;;6065866;23;20166;-75
2023/03/20 00:51:53;;;;;;;35.03;19.70;;;10.30;75.70;;;;;;6066189;23;20213;-77
2023/03/20 00:54:21;;;;;;;35.23;18.43;;;10.30;75.80;;;;;;6066142;23;20237;-77
2023/03/20 00:56:55;;;;;;;37.93;19.53;;;10.30;75.80;;;;;;6065459;23;20202;-75
2023/03/20 00:59:28;;;;;;;36.43;18.87;;;10.20;75.70;;;;;;6064480;23;20154;-78
2023/03/20 01:01:57;;;;;;;38.93;20.27;;;10.20;75.80;;;;;;6065201;23;20167;-77
2023/03/20 01:04:34;;;;;;;41.83;20.10;;;10.20;75.80;;;;;;6065089;23;20186;-78
2023/03/20 01:07:02;;;;;;;34.70;18.60;;;10.20;75.80;;;;;;6065665;23;20162;-77
2023/03/20 01:09:31;;;;;;;41.50;19.87;;;10.20;75.80;;;;;;6062612;23;20186;-78
2023/03/20 01:12:00;;;;;;;34.03;17.33;;;10.20;75.80;;;;;;6064531;23;20179;-77
2023/03/20 01:14:29;;;;;;;41.37;18.70;;;10.10;75.80;;;;;;6063614;23;20261;-77
2023/03/20 01:16:57;;;;;;;43.57;19.33;;;10.10;76.00;;;;;;6063768;23;20182;-77
2023/03/20 01:19:27;;;;;;;35.00;19.00;;;10.10;76.00;;;;;;6062452;23;20808;-78
2023/03/20 01:21:55;;;;;;;35.70;19.43;;;10.10;76.00;;;;;;6063726;23;20261;-77
2023/03/20 01:24:23;;;;;;;37.50;19.57;;;10.10;76.00;;;;;;6062214;23;20214;-77
2023/03/20 01:26:53;;;;;;;37.33;18.10;;;10.00;76.00;;;;;;6064606;23;20178;-77
2023/03/20 01:29:24;;;;;;;36.30;17.67;;;10.10;76.00;;;;;;6062930;23;20202;-78
2023/03/20 01:31:53;;;;;;;35.33;19.53;;;10.00;76.10;;;;;;6062717;23;20163;-77
2023/03/20 01:34:22;;;;;;;35.67;18.37;;;10.00;76.10;;;;;;6063673;23;20253;-77
2023/03/20 01:36:54;;;;;;;36.17;18.57;;;10.00;76.10;;;;;;6063860;23;20179;-77
2023/03/20 01:39:28;;;;;;;37.27;19.40;;;10.00;76.20;;;;;;6061484;23;20159;-78
2023/03/20 01:41:57;;;;;;;39.33;20.43;;;9.90;76.20;;;;;;6063216;23;20578;-78
2023/03/20 01:44:28;;;;;;;42.00;19.33;;;9.90;76.20;;;;;;6062635;23;20226;-78
2023/03/20 01:46:58;;;;;;;37.27;17.93;;;9.90;76.30;;;;;;6065240;23;20163;-77
2023/03/20 01:50:04;;;;;;;38.10;20.33;;;9.90;76.30;;;;;;6065561;23;20305;-77
2023/03/20 01:52:34;;;;;;;38.00;19.17;;;9.90;76.50;;;;;;6065245;23;20668;-77
2023/03/20 01:55:02;;;;;;;40.90;19.23;;;9.90;76.40;;;;;;6065372;23;20666;-77
2023/03/20 01:57:31;;;;;;;40.10;19.37;;;9.80;76.40;;;;;;6064777;23;20262;-78
2023/03/20 02:00:05;;;;;;;40.83;18.37;;;9.80;76.30;;;;;;6065211;23;20179;-77
2023/03/20 02:02:33;;;;;;;36.47;18.07;;;9.80;76.50;;;;;;6064969;23;20162;-77
2023/03/20 02:05:06;;;;;;;40.93;19.87;;;9.80;76.50;;;;;;6066569;23;20174;-77
2023/03/20 02:07:38;;;;;;;40.83;21.40;;;9.80;76.60;;;;;;6064196;23;20242;-76
2023/03/20 02:10:10;;;;;;;42.73;19.40;;;9.80;76.70;;;;;;6065581;23;20178;-79
2023/03/20 02:12:39;;;;;;;38.60;18.97;;;9.80;76.80;;;;;;6065343;23;20166;-77
2023/03/20 02:15:09;;;;;;;48.60;22.30;;;9.80;76.80;;;;;;6065273;23;20178;-77
2023/03/20 02:17:38;;;;;;;38.40;20.40;;;9.80;76.80;;;;;;6063494;23;20182;-77
2023/03/20 02:20:16;;;;;;;44.10;21.27;;;9.70;76.80;;;;;;6065795;23;20229;-77
2023/03/20 02:23:27;;;;;;;43.77;22.77;;;9.70;76.80;;;;;;6065433;23;20608;-77
2023/03/20 02:26:34;;;;;;;48.60;26.20;;;9.70;76.80;;;;;;6064244;23;20374;-77
2023/03/20 02:29:41;;;;;;;43.53;22.73;;;9.70;78.20;;;;;;6058899;23;20257;-77
2023/03/20 02:32:52;;;;;;;42.33;23.47;;;9.70;77.80;;;;;;6064929;23;20208;-77
2023/03/20 02:36:01;;;;;;;45.77;22.07;;;9.70;77.70;;;;;;6066801;23;20178;-77
2023/03/20 02:39:01;;;;;;;45.80;23.20;;;9.60;77.50;;;;;;5996601;23;20210;-79
2023/03/20 02:41:38;;;;;;;55.03;25.37;;;9.60;77.40;;;;;;6029222;23;20186;-78
2023/03/20 02:44:13;;;;;;;54.57;25.93;;;9.60;77.30;;;;;;6067399;23;20222;-77
2023/03/20 02:46:52;;;;;;;47.17;23.97;;;9.60;77.20;;;;;;6067049;23;20213;-77
2023/03/20 02:49:35;;;;;;;46.20;23.67;;;9.60;77.20;;;;;;6065099;23;20234;-77
2023/03/20 02:52:12;;;;;;;53.37;23.73;;;9.60;77.20;;;;;;6064881;23;20167;-77
2023/03/20 02:54:46;;;;;;;58.03;23.73;;;9.50;77.10;;;;;;6065720;23;20166;-77
2023/03/20 02:57:20;;;;;;;46.80;24.30;;;9.50;77.20;;;;;;6065581;23;20202;-77
2023/03/20 02:59:56;;;;;;;49.07;24.00;;;9.50;77.20;;;;;;6064705;23;20166;-77
2023/03/20 03:02:33;;;;;;;55.20;24.37;;;9.40;77.40;;;;;;6065316;23;20601;-78
2023/03/20 03:05:08;;;;;;;50.37;24.93;;;9.40;77.20;;;;;;6065499;23;20166;-78
2023/03/20 03:07:38;;;;;;;50.50;23.10;;;9.40;77.30;;;;;;6066240;23;20473;-78
2023/03/20 03:10:11;;;;;;;52.30;24.67;;;9.40;77.40;;;;;;6064218;23;20273;-79
2023/03/20 03:12:44;;;;;;;42.83;22.57;;;9.40;77.40;;;;;;6065023;23;20237;-77
2023/03/20 03:15:18;;;;;;;45.20;23.57;;;9.30;77.40;;;;;;6064922;23;20163;-77
2023/03/20 03:17:49;;;;;;;47.70;24.93;;;9.30;77.50;;;;;;6062149;23;20375;-77
2023/03/20 03:20:23;;;;;;;44.53;23.10;;;9.30;77.60;;;;;;6061063;23;20159;-77
2023/03/20 03:22:51;;;;;;;45.60;23.97;;;9.30;77.50;;;;;;6061709;23;20600;-78
2023/03/20 03:25:23;;;;;;;49.53;24.17;;;9.30;77.60;;;;;;6063573;23;20186;-75
2023/03/20 03:27:59;;;;;;;50.23;26.07;;;9.30;77.80;;;;;;6062645;23;20567;-77
2023/03/20 03:30:31;;;;;;;43.63;23.63;;;9.20;77.70;;;;;;6061345;23;20225;-77
2023/03/20 03:33:14;;;;;;;46.17;24.23;;;9.20;77.80;;;;;;6060934;23;20174;-77
2023/03/20 03:35:43;;;;;;;54.43;24.73;;;9.20;77.70;;;;;;6061115;23;20163;-77
2023/03/20 03:38:26;;;;;;;46.73;23.30;;;9.20;77.80;;;;;;6062682;23;20175;-77
2023/03/20 03:41:07;;;;;;;46.07;24.97;;;9.10;77.80;;;;;;6062362;23;20162;-77
2023/03/20 03:43:43;;;;;;;43.77;21.93;;;9.10;77.80;;;;;;6061139;23;20217;-77
2023/03/20 03:46:17;;;;;;;46.00;24.37;;;9.10;77.80;;;;;;6063247;23;20163;-75
2023/03/20 03:48:50;;;;;;;48.50;23.70;;;9.10;77.90;;;;;;6066118;23;20173;-77
2023/03/20 03:51:23;;;;;;;50.17;24.20;;;9.10;78.00;;;;;;6065611;23;20166;-77
2023/03/20 03:53:58;;;;;;;45.10;23.33;;;9.10;78.00;;;;;;6065810;23;20165;-77
2023/03/20 03:56:31;;;;;;;46.93;23.93;;;9.10;78.00;;;;;;6062929;23;20214;-78
2023/03/20 03:59:04;;;;;;;44.43;24.07;;;9.10;78.00;;;;;;6063873;23;20677;-77
2023/03/20 04:01:34;;;;;;;44.23;22.30;;;9.00;77.90;;;;;;6063682;23;20298;-76
2023/03/20 04:04:07;;;;;;;44.43;23.53;;;9.00;78.00;;;;;;6064905;23;20605;-77
2023/03/20 04:06:35;;;;;;;44.00;22.27;;;9.00;78.10;;;;;;6063654;23;20593;-77
2023/03/20 04:09:04;;;;;;;49.33;23.17;;;8.90;78.00;;;;;;6065860;23;20458;-77
2023/03/20 04:11:34;;;;;;;49.17;23.60;;;8.90;78.20;;;;;;6064619;23;20225;-77
2023/03/20 04:14:04;;;;;;;53.13;23.30;;;8.90;78.20;;;;;;6064059;23;20163;-77
2023/03/20 04:16:32;;;;;;;47.97;22.77;;;8.90;78.20;;;;;;6062994;23;20686;-77
2023/03/20 04:19:01;;;;;;;45.20;22.17;;;8.90;78.20;;;;;;6064797;23;20628;-77
2023/03/20 04:21:29;;;;;;;45.77;22.20;;;8.90;78.30;;;;;;6066098;23;20214;-78
2023/03/20 04:23:58;;;;;;;43.90;22.00;;;8.80;78.30;;;;;;6065000;23;20179;-77
2023/03/20 04:26:26;;;;;;;45.97;23.33;;;8.80;78.30;;;;;;6066213;23;20628;-78
2023/03/20 04:28:54;;;;;;;41.73;21.90;;;8.80;78.40;;;;;;6065894;23;20181;-77
2023/03/20 04:31:24;;;;;;;45.00;22.73;;;8.80;78.40;;;;;;6065205;23;20189;-77
2023/03/20 04:33:52;;;;;;;49.97;22.13;;;8.80;78.50;;;;;;6064963;23;20238;-77
2023/03/20 04:36:21;;;;;;;43.90;22.30;;;8.80;78.60;;;;;;6065269;23;20699;-77
2023/03/20 04:38:49;;;;;;;43.93;24.03;;;8.80;78.80;;;;;;6065405;23;20625;-77
2023/03/20 04:41:19;;;;;;;44.67;22.97;;;8.80;78.90;;;;;;6065461;23;20178;-78
2023/03/20 04:43:48;;;;;;;46.63;23.10;;;8.80;79.10;;;;;;6062510;23;20201;-77
2023/03/20 04:46:16;;;;;;;40.47;22.07;;;8.80;79.10;;;;;;6063606;23;20186;-77
2023/03/20 04:48:46;;;;;;;40.57;21.93;;;8.80;79.20;;;;;;6061874;23;20323;-77
2023/03/20 04:51:14;;;;;;;42.80;23.03;;;8.80;79.20;;;;;;6064372;23;20205;-78
2023/03/20 04:53:42;;;;;;;48.57;24.40;;;8.80;79.20;;;;;;6064145;23;20204;-77
2023/03/20 04:56:11;;;;;;;44.27;23.23;;;8.80;79.20;;;;;;6064289;23;20241;-77
2023/03/20 04:58:39;;;;;;;43.90;23.37;;;8.80;79.20;;;;;;6063512;23;20202;-77
2023/03/20 05:01:07;;;;;;;42.33;22.07;;;8.90;79.20;;;;;;6063653;23;20181;-75
2023/03/20 05:03:36;;;;;;;48.83;23.13;;;8.90;79.20;;;;;;6063974;23;20182;-78
2023/03/20 05:06:06;;;;;;;44.03;21.80;;;8.90;79.50;;;;;;6065641;23;20181;-77
2023/03/20 05:08:35;;;;;;;46.07;23.43;;;8.90;79.60;;;;;;6065868;23;20159;-77
2023/03/20 05:11:04;;;;;;;40.47;21.13;;;9.00;79.70;;;;;;6067370;23;20198;-77
2023/03/20 05:13:32;;;;;;;45.93;24.43;;;9.00;79.80;;;;;;6064418;23;20182;-78
2023/03/20 05:16:01;;;;;;;46.77;23.20;;;9.10;79.90;;;;;;6066005;23;20238;-78
2023/03/20 05:18:29;;;;;;;49.43;24.40;;;9.10;80.00;;;;;;6063820;23;20182;-78
2023/03/20 05:20:57;;;;;;;49.00;24.50;;;9.10;80.50;;;;;;6065716;23;20175;-77
2023/03/20 05:23:27;;;;;;;50.57;23.87;;;9.20;81.20;;;;;;6063788;23;20182;-76
2023/03/20 05:25:55;;;;;;;45.07;22.90;;;9.20;81.50;;;;;;6064129;23;20229;-79
2023/03/20 05:28:24;;;;;;;44.27;23.10;;;9.30;81.70;;;;;;6063176;23;20672;-81
2023/03/20 05:30:52;;;;;;;45.10;24.13;;;9.40;81.60;;;;;;6063112;23;20222;-79
2023/03/20 05:33:21;;;;;;;46.80;23.00;;;9.50;81.80;;;;;;6063960;23;20504;-79
2023/03/20 05:35:49;;;;;;;41.77;22.37;;;9.50;81.70;;;;;;6063395;23;20185;-76
2023/03/20 05:38:21;;;;;;;45.10;22.03;;;9.60;81.70;;;;;;6062513;23;20186;-79
2023/03/20 05:40:55;;;;;;;46.03;21.37;;;9.70;81.70;;;;;;6062684;23;20211;-77
2023/03/20 05:43:24;;;;;;;40.57;20.77;;;9.80;81.60;;;;;;6063454;23;20195;-79
2023/03/20 05:45:52;;;;;;;38.57;20.90;;;9.90;82.20;;;;;;6065442;23;20178;-79
2023/03/20 05:48:20;;;;;;;40.67;21.57;;;10.00;81.30;;;;;;6063890;23;20178;-77
2023/03/20 05:50:49;;;;;;;44.23;20.97;;;10.00;81.10;;;;;;6062021;23;20716;-78
2023/03/20 05:53:17;;;;;;;42.93;21.43;;;10.10;80.90;;;;;;6065775;23;20178;-78
2023/03/20 05:55:46;;;;;;;40.73;20.50;;;10.10;80.80;;;;;;6065082;23;20548;-78
2023/03/20 05:58:15;;;;;;;42.63;22.27;;;10.20;80.70;;;;;;6066047;23;20206;-78
2023/03/20 06:00:44;;;;;;;41.77;20.80;;;10.30;80.80;;;;;;6064326;23;20180;-78
2023/03/20 06:03:12;;;;;;;42.57;22.63;;;10.40;80.80;;;;;;6063370;23;20628;-77
2023/03/20 06:05:41;;;;;;;41.80;21.17;;;10.40;80.80;;;;;;6064520;23;20598;-76
2023/03/20 06:08:09;;;;;;;39.77;21.60;;;10.50;80.80;;;;;;6065334;23;20217;-78
2023/03/20 06:10:38;;;;;;;45.73;23.00;;;10.60;80.90;;;;;;6065761;23;20202;-78
2023/03/20 06:13:06;;;;;;;43.27;22.50;;;10.70;80.90;;;;;;6065363;23;20519;-78
2023/03/20 06:15:36;;;;;;;44.60;21.73;;;10.70;80.70;;;;;;6065070;23;20553;-79
2023/03/20 06:18:05;;;;;;;44.97;21.93;;;10.80;80.70;;;;;;6065326;23;20166;-79
2023/03/20 06:20:33;;;;;;;47.20;23.23;;;10.80;80.50;;;;;;6065700;23;20536;-76
2023/03/20 06:23:01;;;;;;;44.27;22.33;;;10.90;80.50;;;;;;6065615;23;20190;-77
2023/03/20 06:25:30;;;;;;;41.47;22.30;;;11.00;80.40;;;;;;6065173;23;20189;-78
2023/03/20 06:27:58;;;;;;;47.20;24.87;;;11.10;80.30;;;;;;6063478;23;20182;-77
2023/03/20 06:30:27;;;;;;;42.73;22.40;;;11.10;80.10;;;;;;6064569;23;20672;-77
2023/03/20 06:32:56;;;;;;;43.23;23.60;;;11.20;80.00;;;;;;6066421;23;20165;-77
2023/03/20 06:35:29;;;;;;;46.80;24.97;;;11.30;79.90;;;;;;6065111;23;20175;-78
2023/03/20 06:37:57;;;;;;;42.80;23.53;;;11.40;80.00;;;;;;6066337;23;20163;-77
2023/03/20 06:40:27;;;;;;;42.60;22.97;;;11.40;80.10;;;;;;6065864;23;20226;-78
2023/03/20 06:42:55;;;;;;;42.30;21.97;;;11.40;80.40;;;;;;6066459;23;20178;-77
2023/03/20 06:45:24;;;;;;;47.83;22.97;;;11.50;80.00;;;;;;6067154;23;20214;-78
2023/03/20 06:47:52;;;;;;;40.17;22.43;;;11.50;80.10;;;;;;6066418;23;20183;-77
2023/03/20 06:50:22;;;;;;;40.20;22.67;;;11.60;80.00;;;;;;6065289;23;20182;-78
2023/03/20 06:52:51;;;;;;;44.90;22.87;;;11.60;80.00;;;;;;6066253;23;20624;-78
2023/03/20 06:55:19;;;;;;;47.53;23.97;;;11.70;80.00;;;;;;6065303;23;20633;-76
2023/03/20 06:57:48;;;;;;;44.93;22.87;;;11.80;79.80;;;;;;6065642;23;20266;-77
2023/03/20 07:00:17;;;;;;;43.13;24.70;;;11.80;79.70;;;;;;6065732;23;20174;-78
2023/03/20 07:02:46;;;;;;;44.57;24.23;;;11.90;79.80;;;;;;6067380;23;20185;-77
2023/03/20 07:05:14;;;;;;;47.23;26.47;;;12.00;79.70;;;;;;6066559;23;20178;-78
2023/03/20 07:07:44;;;;;;;57.80;27.80;;;12.10;79.50;;;;;;6065899;23;20178;-78
2023/03/20 07:10:13;;;;;;;61.77;33.17;;;12.20;79.40;;;;;;6066709;23;20666;-78
2023/03/20 07:12:41;;;;;;;66.17;35.37;;;12.30;79.20;;;;;;6064784;23;20198;-78
2023/03/20 07:15:10;;;;;;;69.93;37.60;;;12.40;79.00;;;;;;6065104;23;20230;-77
2023/03/20 07:17:38;;;;;;;73.80;38.53;;;12.50;78.90;;;;;;6066911;23;20265;-78
2023/03/20 07:20:08;;;;;;;74.60;41.60;;;12.60;78.90;;;;;;6067987;23;20300;-78
2023/03/20 07:22:37;;;;;;;73.47;41.40;;;12.70;78.70;;;;;;6065837;23;20174;-78
2023/03/20 07:25:08;;;;;;;72.13;41.17;;;12.80;78.40;;;;;;6066204;23;20182;-78
2023/03/20 07:27:37;;;;;;;56.90;32.10;;;12.90;78.30;;;;;;6065226;23;20219;-79
2023/03/20 07:30:07;;;;;;;48.37;28.30;;;12.90;78.10;;;;;;6067690;23;20182;-79
2023/03/20 07:32:36;;;;;;;49.93;26.93;;;13.00;78.00;;;;;;6067035;23;20194;-77
2023/03/20 07:35:06;;;;;;;53.40;26.77;;;13.00;77.80;;;;;;6066766;23;20935;-78
2023/03/20 07:37:34;;;;;;;40.30;22.27;;;13.00;77.80;;;;;;6066795;23;20182;-79
2023/03/20 07:40:03;;;;;;;44.10;22.77;;;13.10;77.90;;;;;;6066434;23;20601;-77
2023/03/20 07:42:32;;;;;;;41.13;21.67;;;13.20;77.90;;;;;;6065215;23;20476;-78
2023/03/20 07:45:01;;;;;;;43.97;21.87;;;13.20;77.80;;;;;;6065656;23;20178;-77
2023/03/20 07:47:29;;;;;;;41.87;20.83;;;13.30;77.70;;;;;;6067486;23;20178;-77
2023/03/20 07:49:57;;;;;;;44.93;23.47;;;13.30;77.50;;;;;;6067797;23;20186;-78
2023/03/20 07:52:26;;;;;;;44.27;21.50;;;13.40;77.40;;;;;;6066119;23;20698;-77
2023/03/20 07:54:54;;;;;;;38.47;21.90;;;13.50;77.30;;;;;;6065054;23;20190;-78
2023/03/20 07:57:22;;;;;;;43.10;20.27;;;13.50;77.30;;;;;;6066343;23;20668;-77
2023/03/20 07:59:52;;;;;;;37.30;21.13;;;13.50;77.00;;;;;;6066260;23;20185;-78
2023/03/20 08:02:20;;;;;;;36.27;21.00;;;13.60;77.10;;;;;;6066686;23;20182;-78
2023/03/20 08:04:49;;;;;;;41.23;21.43;;;13.70;77.00;;;;;;6065379;23;20624;-78
2023/03/20 08:07:17;;;;;;;45.10;21.90;;;13.80;76.80;;;;;;6062540;23;20184;-78
2023/03/20 08:09:46;;;;;;;39.37;21.40;;;13.90;76.60;;;;;;6062370;23;20209;-77
2023/03/20 08:12:15;;;;;;;39.30;20.23;;;13.90;76.00;;;;;;6063823;23;20269;-78
2023/03/20 08:14:44;;;;;;;44.50;19.77;;;13.90;76.00;;;;;;6064386;23;20220;-78
2023/03/20 08:17:14;;;;;;;35.97;20.20;;;14.00;76.00;;;;;;6065653;23;20174;-77
2023/03/20 08:19:46;;;;;;;43.07;18.87;;;14.10;75.80;;;;;;6065546;23;20536;-79
2023/03/20 08:22:14;;;;;;;41.07;19.10;;;14.20;75.40;;;;;;6066494;23;20178;-77
2023/03/20 08:24:43;;;;;;;35.50;18.77;;;14.20;74.90;;;;;;6065886;23;20178;-77
2023/03/20 08:27:11;;;;;;;39.37;18.97;;;14.30;75.00;;;;;;6063372;23;20206;-78
2023/03/20 08:29:39;;;;;;;33.33;16.83;;;14.40;74.70;;;;;;6063638;23;20183;-77
2023/03/20 08:32:08;;;;;;;30.40;15.83;;;14.50;73.80;;;;;;6063741;23;20754;-78
2023/03/20 08:34:37;;;;;;;35.93;16.93;;;14.60;73.80;;;;;;6065453;23;20238;-77
2023/03/20 08:37:06;;;;;;;32.20;16.30;;;14.70;73.50;;;;;;6064867;23;20178;-78
2023/03/20 08:39:35;;;;;;;35.57;15.93;;;14.90;73.50;;;;;;6063982;23;20192;-78
2023/03/20 08:42:03;;;;;;;32.17;15.27;;;15.00;73.30;;;;;;6066194;23;20814;-78
2023/03/20 08:44:32;;;;;;;28.07;14.70;;;15.10;73.40;;;;;;6066168;23;20178;-79
2023/03/20 08:47:00;;;;;;;30.00;14.53;;;15.30;73.00;;;;;;6067473;23;20237;-77
2023/03/20 08:49:28;;;;;;;28.37;13.53;;;15.40;71.90;;;;;;6065369;23;20624;-77
2023/03/20 08:51:59;;;;;;;23.73;13.70;;;15.40;72.00;;;;;;6065530;23;20198;-78
2023/03/20 08:54:27;;;;;;;26.43;13.40;;;15.50;72.00;;;;;;6066782;23;20531;-78
2023/03/20 08:56:56;;;;;;;28.33;13.47;;;15.60;71.60;;;;;;6064578;23;20225;-78
2023/03/20 08:59:24;;;;;;;28.83;14.77;;;15.70;71.30;;;;;;6066795;23;20237;-78
2023/03/20 09:01:53;;;;;;;24.00;13.53;;;15.80;71.10;;;;;;6065586;23;20543;-78
2023/03/20 09:04:21;;;;;;;26.20;13.97;;;15.90;71.60;;;;;;6066663;23;20178;-79
2023/03/20 09:06:50;;;;;;;26.10;12.80;;;16.00;70.90;;;;;;6066192;23;20217;-78
2023/03/20 09:09:25;;;;;;;23.17;12.20;;;16.00;70.50;;;;;;6063618;23;20632;-78
2023/03/20 09:11:54;;;;;;;22.73;12.47;;;16.10;70.40;;;;;;6067246;23;20182;-78
2023/03/20 09:14:22;;;;;;;25.93;12.60;;;16.20;69.90;;;;;;6066685;23;20250;-78
2023/03/20 09:16:50;;;;;;;22.33;11.97;;;16.20;69.90;;;;;;6066653;23;20182;-79
2023/03/20 09:19:19;;;;;;;24.47;12.67;;;16.30;69.60;;;;;;6066104;23;20556;-79
2023/03/20 09:21:48;;;;;;;29.57;13.07;;;16.30;68.00;;;;;;6065376;23;20171;-78
2023/03/20 09:24:16;;;;;;;21.47;11.90;;;16.40;67.50;;;;;;6066177;23;20182;-78
2023/03/20 09:26:46;;;;;;;23.63;11.67;;;16.50;67.90;;;;;;6066605;23;20182;-77
2023/03/20 09:29:14;;;;;;;22.57;11.90;;;16.50;68.20;;;;;;6067020;23;20806;-74
2023/03/20 09:31:43;;;;;;;15.53;8.60;;;16.60;68.50;;;;;;6064744;23;20178;-79
2023/03/20 09:34:11;;;;;;;15.83;8.93;;;16.60;67.30;;;;;;6066109;23;20181;-78
2023/03/20 09:36:39;;;;;;;16.93;8.90;;;16.70;67.40;;;;;;6064011;23;20202;-78
2023/03/20 09:39:08;;;;;;;20.63;10.30;;;16.70;66.80;;;;;;6065216;23;20568;-77
2023/03/20 09:41:37;;;;;;;15.63;9.30;;;16.80;67.00;;;;;;6066504;23;20182;-77
2023/03/20 09:44:38;;;;;;;15.00;9.07;;;16.80;67.10;;;;;;6065660;23;20660;-79
2023/03/20 09:47:14;;;;;;;15.30;8.37;;;16.90;66.70;;;;;;6067260;23;20265;-79
2023/03/20 09:49:57;;;;;;;11.30;7.27;;;16.90;66.20;;;;;;6066937;23;20210;-79
2023/03/20 09:52:30;;;;;;;19.87;8.30;;;16.90;65.90;;;;;;6063659;23;20186;-79
2023/03/20 09:55:03;;;;;;;17.07;8.33;;;16.90;64.70;;;;;;6067186;23;20167;-78
2023/03/20 09:57:39;;;;;;;16.87;9.03;;;17.00;64.80;;;;;;6066119;23;20212;-78
2023/03/20 10:00:17;;;;;;;15.67;8.77;;;17.10;65.10;;;;;;6067191;23;20162;-79
2023/03/20 10:02:50;;;;;;;15.50;8.57;;;17.20;65.00;;;;;;6064818;23;20723;-78
2023/03/20 10:05:24;;;;;;;14.50;8.30;;;17.30;65.20;;;;;;6064785;23;20221;-80
2023/03/20 10:07:54;;;;;;;13.37;8.07;;;17.40;64.40;;;;;;6066259;23;20621;-78
2023/03/20 10:10:39;;;;;;;14.00;7.93;;;17.50;64.40;;;;;;6065258;23;20628;-78
2023/03/20 10:13:33;;;;;;;13.93;8.17;;;17.60;64.70;;;;;;6065026;23;20234;-79
2023/03/20 10:16:12;;;;;;;13.50;6.77;;;17.70;63.60;;;;;;6063476;23;20186;-78
2023/03/20 10:18:46;;;;;;;15.90;7.50;;;17.80;63.90;;;;;;6063348;23;20189;-78
2023/03/20 10:21:18;;;;;;;17.30;7.47;;;17.80;62.50;;;;;;6064883;23;20628;-79
2023/03/20 10:23:55;;;;;;;14.57;7.40;;;17.80;62.00;;;;;;6066408;23;20159;-79
2023/03/20 10:26:25;;;;;;;14.40;8.03;;;17.90;61.90;;;;;;6066731;23;20249;-79
2023/03/20 10:28:57;;;;;;;12.37;7.30;;;17.90;61.20;;;;;;6065632;23;20178;-78
2023/03/20 10:31:41;;;;;;;10.60;5.37;;;18.00;61.20;;;;;;6064669;23;20163;-78
2023/03/20 10:34:25;;;;;;;12.50;7.03;;;18.10;60.50;;;;;;6066035;23;20178;-78
2023/03/20 10:37:04;;;;;;;11.57;6.90;;;18.20;59.70;;;;;;6065637;23;20226;-79
2023/03/20 10:39:52;;;;;;;17.07;8.77;;;18.30;59.90;;;;;;6063304;23;20166;-79
2023/03/20 10:42:24;;;;;;;14.20;7.60;;;18.40;60.00;;;;;;6065790;23;20214;-78
2023/03/20 10:44:57;;;;;;;19.00;8.20;;;18.60;60.20;;;;;;6066026;23;20170;-79
2023/03/20 10:47:30;;;;;;;18.70;8.70;;;18.70;59.50;;;;;;6065599;23;20170;-78
2023/03/20 10:50:03;;;;;;;16.70;8.87;;;18.80;59.30;;;;;;6066758;23;20268;-80
2023/03/20 10:52:33;;;;;;;13.97;7.67;;;18.80;58.40;;;;;;6064270;23;20171;-80
2023/03/20 10:55:07;;;;;;;14.07;8.10;;;19.00;58.40;;;;;;6065494;23;20240;-79
2023/03/20 10:57:40;;;;;;;16.67;9.10;;;19.00;58.10;;;;;;6064979;23;20214;-80
2023/03/20 11:00:18;;;;;;;13.13;8.13;;;19.10;57.60;;;;;;6064770;23;20169;-78
2023/03/20 11:02:48;;;;;;;14.93;7.80;;;19.20;57.80;;;;;;6064706;23;20159;-78
2023/03/20 11:05:24;;;;;;;15.77;7.87;;;19.20;57.30;;;;;;6063613;23;20183;-77
2023/03/20 11:08:02;;;;;;;16.25;9.00;;;19.30;57.70;;;;;;6065487;23;20159;-78
2023/03/20 11:10:33;;;;;;;15.50;8.47;;;19.30;57.00;;;;;;6063551;23;20474;-78
2023/03/20 11:13:18;;;;;;;13.90;8.23;;;19.40;57.00;;;;;;6065169;23;20187;-79
2023/03/20 11:15:47;;;;;;;17.00;8.27;;;19.40;56.40;;;;;;6065938;23;20166;-79
2023/03/20 11:18:17;;;;;;;15.93;7.20;;;19.50;56.70;;;;;;6065610;23;20178;-78
2023/03/20 11:20:51;;;;;;;13.07;7.83;;;19.50;56.80;;;;;;6064810;23;20621;-77
2023/03/20 11:23:25;;;;;;;13.33;7.33;;;19.50;56.10;;;;;;6065900;23;20155;-78
2023/03/20 11:25:58;;;;;;;12.80;7.55;;;19.60;56.70;;;;;;6064679;23;20214;-79
2023/03/20 11:28:38;;;;;;;16.00;7.30;;;19.70;57.00;;;;;;6064159;23;20165;-78
2023/03/20 11:31:16;;;;;;;14.43;7.40;;;19.80;56.50;;;;;;6064000;23;20162;-77
2023/03/20 11:33:50;;;;;;;15.27;6.70;;;19.90;56.50;;;;;;6063694;23;20187;-77
2023/03/20 11:36:25;;;;;;;14.23;7.57;;;19.90;55.80;;;;;;6066106;23;20159;-78
2023/03/20 11:39:02;;;;;;;13.57;7.03;;;19.90;55.80;;;;;;6062837;23;20690;-78
2023/03/20 11:41:31;;;;;;;17.42;7.57;;;20.00;56.10;;;;;;6064359;23;20213;-79
2023/03/20 11:43:59;;;;;;;13.80;7.15;;;20.10;56.30;;;;;;6064147;23;20225;-78
2023/03/20 11:46:28;;;;;;;10.00;6.50;;;20.20;56.80;;;;;;6064335;23;20701;-76
2023/03/20 11:49:19;;;;;;;12.88;6.30;;;20.20;55.20;;;;;;6065758;23;20632;-79
2023/03/20 11:51:47;;;;;;;12.95;6.43;;;20.10;54.40;;;;;;6066149;23;20163;-78
2023/03/20 11:54:19;;;;;;;14.52;7.13;;;20.10;54.80;;;;;;6066265;23;20234;-77
2023/03/20 11:56:55;;;;;;;9.60;6.22;;;20.20;55.00;;;;;;6062050;23;20676;-77
2023/03/20 11:59:29;;;;;;;16.30;7.65;;;20.30;55.20;;;;;;6065974;23;20169;-76
2023/03/20 12:01:58;;;;;;;15.63;7.50;;;20.30;55.70;;;;;;6066539;23;20158;-75
2023/03/20 12:04:30;;;;;;;12.35;6.57;;;20.40;55.60;;;;;;6065073;23;20213;-76
2023/03/20 12:07:05;;;;;;;14.55;7.15;;;20.50;55.90;;;;;;6065773;23;20166;-78
2023/03/20 12:09:42;;;;;;;15.00;8.27;;;20.60;55.80;;;;;;6065084;23;20166;-78
2023/03/20 12:12:24;;;;;;;19.63;7.15;;;20.60;54.70;;;;;;6066212;23;20166;-78
2023/03/20 12:15:01;;;;;;;11.45;7.13;;;20.70;54.50;;;;;;6065844;23;20186;-76
2023/03/20 12:17:51;;;;;;;14.25;8.43;;;20.70;54.70;;;;;;6066561;23;20623;-76
2023/03/20 12:20:36;;;;;;;14.13;8.25;;;20.80;54.90;;;;;;6066456;23;20172;-78
2023/03/20 12:23:13;;;;;;;12.88;7.53;;;20.90;54.80;;;;;;6064458;23;20613;-76
2023/03/20 12:25:47;;;;;;;15.48;7.70;;;20.90;54.80;;;;;;6067116;23;20214;-75
2023/03/20 12:28:22;;;;;;;13.13;8.05;;;21.00;54.20;;;;;;6065160;23;20625;-77
2023/03/20 12:31:07;;;;;;;14.32;6.88;;;21.10;54.30;;;;;;6063472;23;20159;-76
2023/03/20 12:33:42;;;;;;;11.65;6.22;;;21.20;53.70;;;;;;6059114;23;20182;-77
2023/03/20 12:36:17;;;;;;;10.63;6.10;;;21.30;53.60;;;;;;6064624;23;20159;-78
2023/03/20 12:38:46;;;;;;;11.13;6.53;;;21.40;53.40;;;;;;6066319;23;20170;-77
2023/03/20 12:41:16;;;;;;;12.38;6.88;;;21.50;53.40;;;;;;6065088;23;20182;-78
2023/03/20 12:44:13;;;;;;;12.38;7.35;;;21.50;52.80;;;;;;6061773;23;20229;-76
2023/03/20 12:46:47;;;;;;;12.20;6.38;;;21.60;52.80;;;;;;6064451;23;20163;-79
2023/03/20 12:49:38;;;;;;;10.93;6.47;;;21.60;52.40;;;;;;6066213;23;20162;-77
2023/03/20 12:52:15;;;;;;;11.23;6.20;;;21.60;52.40;;;;;;6064935;23;20167;-78
2023/03/20 12:55:12;;;;;;;11.73;5.75;;;21.60;51.00;;;;;;6064932;23;20242;-77
2023/03/20 12:57:50;;;;;;;11.57;6.72;;;21.70;51.10;;;;;;6062816;23;20727;-76
2023/03/20 13:00:24;;;;;;;14.43;5.68;;;21.80;51.80;;;;;;6063424;23;20170;-78